sensor_id;sensor_type;location;lat;lon;timestamp;pressure;altitude;pressure_sealevel;temperature;humidity
54920;BME280;63804;53.120;8.764;2023-11-22T00:00:36;102939.72;;;6.80;71.33
54920;BME280;63804;53.120;8.764;2023-11-22T00:03:03;102939.63;;;6.83;71.08
54920;BME280;63804;53.120;8.764;2023-11-22T00:05:31;102942.06;;;6.92;70.80
54920;BME280;63804;53.120;8.764;2023-11-22T00:07:59;102934.97;;;6.94;70.86
54920;BME280;63804;53.120;8.764;2023-11-22T00:10:27;102932.50;;;6.88;70.91
54920;BME280;63804;53.120;8.764;2023-11-22T00:12:55;102931.19;;;6.69;71.35
54920;BME280;63804;53.120;8.764;2023-11-22T00:15:23;102935.13;;;6.49;72.47
54920;BME280;63804;53.120;8.764;2023-11-22T00:17:50;102935.75;;;6.61;72.03
54920;BME280;63804;53.120;8.764;2023-11-22T00:20:19;102941.59;;;6.73;71.52
54920;BME280;63804;53.120;8.764;2023-11-22T00:22:48;102933.81;;;6.67;71.48
54920;BME280;63804;53.120;8.764;2023-11-22T00:25:17;102945.47;;;6.57;71.23
54920;BME280;63804;53.120;8.764;2023-11-22T00:27:46;102954.56;;;6.41;72.48
54920;BME280;63804;53.120;8.764;2023-11-22T00:30:14;102954.50;;;6.45;72.15
54920;BME280;63804;53.120;8.764;2023-11-22T00:32:42;102955.59;;;6.35;72.67
54920;BME280;63804;53.120;8.764;2023-11-22T00:35:10;102955.13;;;6.13;72.95
54920;BME280;63804;53.120;8.764;2023-11-22T00:37:38;102954.53;;;5.99;74.04
54920;BME280;63804;53.120;8.764;2023-11-22T00:40:06;102950.38;;;6.32;72.96
54920;BME280;63804;53.120;8.764;2023-11-22T00:42:39;102958.81;;;6.48;71.77
54920;BME280;63804;53.120;8.764;2023-11-22T00:45:09;102969.38;;;6.46;71.74
54920;BME280;63804;53.120;8.764;2023-11-22T00:47:37;102973.09;;;6.38;72.05
54920;BME280;63804;53.120;8.764;2023-11-22T00:50:07;102968.53;;;6.46;71.92
54920;BME280;63804;53.120;8.764;2023-11-22T00:52:35;102974.19;;;6.26;72.42
54920;BME280;63804;53.120;8.764;2023-11-22T00:55:03;102976.84;;;5.76;73.64
54920;BME280;63804;53.120;8.764;2023-11-22T00:57:31;102979.25;;;5.89;73.69
54920;BME280;63804;53.120;8.764;2023-11-22T00:59:59;102979.16;;;5.95;73.59
54920;BME280;63804;53.120;8.764;2023-11-22T01:02:27;102984.78;;;6.23;72.36
54920;BME280;63804;53.120;8.764;2023-11-22T01:04:55;102981.09;;;6.31;71.65
54920;BME280;63804;53.120;8.764;2023-11-22T01:07:23;102984.16;;;6.08;72.11
54920;BME280;63804;53.120;8.764;2023-11-22T01:09:50;102986.47;;;5.77;73.64
54920;BME280;63804;53.120;8.764;2023-11-22T01:12:18;102978.94;;;5.56;74.54
54920;BME280;63804;53.120;8.764;2023-11-22T01:14:46;102977.16;;;5.56;74.46
54920;BME280;63804;53.120;8.764;2023-11-22T01:17:14;102977.16;;;5.56;74.23
54920;BME280;63804;53.120;8.764;2023-11-22T01:19:42;102974.78;;;5.41;74.31
54920;BME280;63804;53.120;8.764;2023-11-22T01:22:10;102975.66;;;5.43;74.90
54920;BME280;63804;53.120;8.764;2023-11-22T01:24:38;102973.09;;;5.37;74.47
54920;BME280;63804;53.120;8.764;2023-11-22T01:27:06;102973.59;;;5.60;73.81
54920;BME280;63804;53.120;8.764;2023-11-22T01:29:33;102986.06;;;5.48;73.85
54920;BME280;63804;53.120;8.764;2023-11-22T01:32:02;102995.09;;;5.31;74.66
54920;BME280;63804;53.120;8.764;2023-11-22T01:34:30;102994.16;;;5.34;74.48
54920;BME280;63804;53.120;8.764;2023-11-22T01:36:58;102999.81;;;5.65;73.48
54920;BME280;63804;53.120;8.764;2023-11-22T01:39:26;103012.66;;;5.82;72.48
54920;BME280;63804;53.120;8.764;2023-11-22T01:41:56;103001.72;;;5.55;73.17
54920;BME280;63804;53.120;8.764;2023-11-22T01:44:26;102993.38;;;5.29;73.94
54920;BME280;63804;53.120;8.764;2023-11-22T01:46:54;102991.75;;;5.22;74.45
54920;BME280;63804;53.120;8.764;2023-11-22T01:49:23;102987.47;;;5.16;74.35
54920;BME280;63804;53.120;8.764;2023-11-22T01:51:51;102998.56;;;5.35;73.85
54920;BME280;63804;53.120;8.764;2023-11-22T01:54:20;103013.09;;;5.56;72.82
54920;BME280;63804;53.120;8.764;2023-11-22T01:56:49;103010.44;;;5.59;72.36
54920;BME280;63804;53.120;8.764;2023-11-22T01:59:17;103012.94;;;5.67;71.66
54920;BME280;63804;53.120;8.764;2023-11-22T02:01:45;103016.72;;;5.50;72.11
54920;BME280;63804;53.120;8.764;2023-11-22T02:04:13;103029.38;;;5.22;72.86
54920;BME280;63804;53.120;8.764;2023-11-22T02:06:41;103033.16;;;5.03;73.59
54920;BME280;63804;53.120;8.764;2023-11-22T02:09:09;103026.31;;;4.91;74.39
54920;BME280;63804;53.120;8.764;2023-11-22T02:11:41;103032.56;;;4.82;74.77
54920;BME280;63804;53.120;8.764;2023-11-22T02:14:16;103021.13;;;4.86;74.65
54920;BME280;63804;53.120;8.764;2023-11-22T02:16:45;103029.88;;;4.88;74.74
54920;BME280;63804;53.120;8.764;2023-11-22T02:19:16;103023.06;;;5.34;73.34
54920;BME280;63804;53.120;8.764;2023-11-22T02:21:45;103025.47;;;5.49;72.34
54920;BME280;63804;53.120;8.764;2023-11-22T02:24:13;103020.97;;;5.57;72.32
54920;BME280;63804;53.120;8.764;2023-11-22T02:26:44;103033.28;;;5.54;72.53
54920;BME280;63804;53.120;8.764;2023-11-22T02:29:13;103036.31;;;5.26;73.15
54920;BME280;63804;53.120;8.764;2023-11-22T02:31:42;103042.94;;;4.92;74.43
54920;BME280;63804;53.120;8.764;2023-11-22T02:34:13;103042.72;;;5.08;74.51
54920;BME280;63804;53.120;8.764;2023-11-22T02:36:43;103043.06;;;5.44;73.28
54920;BME280;63804;53.120;8.764;2023-11-22T02:39:30;103039.47;;;5.51;72.63
54920;BME280;63804;53.120;8.764;2023-11-22T02:42:01;103048.44;;;5.36;72.67
54920;BME280;63804;53.120;8.764;2023-11-22T02:44:29;103050.66;;;5.04;73.54
54920;BME280;63804;53.120;8.764;2023-11-22T02:46:56;103058.72;;;4.90;74.14
54920;BME280;63804;53.120;8.764;2023-11-22T02:49:25;103052.66;;;4.85;74.44
54920;BME280;63804;53.120;8.764;2023-11-22T02:51:53;103055.25;;;4.86;74.13
54920;BME280;63804;53.120;8.764;2023-11-22T02:54:20;103050.22;;;4.68;75.10
54920;BME280;63804;53.120;8.764;2023-11-22T02:56:49;103049.22;;;4.80;74.74
54920;BME280;63804;53.120;8.764;2023-11-22T02:59:16;103052.03;;;4.64;74.96
54920;BME280;63804;53.120;8.764;2023-11-22T03:01:44;103053.72;;;4.69;74.83
54920;BME280;63804;53.120;8.764;2023-11-22T03:04:13;103050.31;;;4.60;75.27
54920;BME280;63804;53.120;8.764;2023-11-22T03:06:41;103051.19;;;4.62;75.15
54920;BME280;63804;53.120;8.764;2023-11-22T03:09:09;103054.38;;;4.84;74.39
54920;BME280;63804;53.120;8.764;2023-11-22T03:11:37;103051.31;;;5.20;73.13
54920;BME280;63804;53.120;8.764;2023-11-22T03:14:06;103057.09;;;5.43;72.13
54920;BME280;63804;53.120;8.764;2023-11-22T03:16:34;103061.16;;;5.04;73.06
54920;BME280;63804;53.120;8.764;2023-11-22T03:19:01;103068.44;;;4.82;74.11
54920;BME280;63804;53.120;8.764;2023-11-22T03:21:29;103067.22;;;5.07;73.15
54920;BME280;63804;53.120;8.764;2023-11-22T03:23:57;103066.97;;;5.26;72.19
54920;BME280;63804;53.120;8.764;2023-11-22T03:26:28;103088.06;;;5.21;72.04
54920;BME280;63804;53.120;8.764;2023-11-22T03:28:55;103097.56;;;5.30;72.07
54920;BME280;63804;53.120;8.764;2023-11-22T03:31:23;103097.84;;;5.11;72.23
54920;BME280;63804;53.120;8.764;2023-11-22T03:33:51;103101.91;;;4.61;73.79
54920;BME280;63804;53.120;8.764;2023-11-22T03:36:19;103102.22;;;4.31;75.23
54920;BME280;63804;53.120;8.764;2023-11-22T03:38:46;103103.13;;;4.27;75.23
54920;BME280;63804;53.120;8.764;2023-11-22T03:41:14;103105.81;;;4.22;75.53
54920;BME280;63804;53.120;8.764;2023-11-22T03:43:43;103101.34;;;4.30;74.94
54920;BME280;63804;53.120;8.764;2023-11-22T03:46:11;103111.72;;;4.43;74.38
54920;BME280;63804;53.120;8.764;2023-11-22T03:48:38;103116.94;;;4.46;74.52
54920;BME280;63804;53.120;8.764;2023-11-22T03:51:06;103109.88;;;4.52;74.32
54920;BME280;63804;53.120;8.764;2023-11-22T03:53:34;103112.69;;;4.35;74.81
54920;BME280;63804;53.120;8.764;2023-11-22T03:58:43;103101.34;;;4.33;74.99
54920;BME280;63804;53.120;8.764;2023-11-22T04:01:11;103115.09;;;4.58;74.30
54920;BME280;63804;53.120;8.764;2023-11-22T04:03:40;103124.63;;;4.66;73.54
54920;BME280;63804;53.120;8.764;2023-11-22T04:06:08;103115.63;;;4.86;73.04
54920;BME280;63804;53.120;8.764;2023-11-22T04:08:36;103113.41;;;4.51;73.55
54920;BME280;63804;53.120;8.764;2023-11-22T04:11:05;103112.47;;;4.55;73.66
54920;BME280;63804;53.120;8.764;2023-11-22T04:13:33;103100.78;;;4.84;72.31
54920;BME280;63804;53.120;8.764;2023-11-22T04:16:01;103106.94;;;4.81;72.13
54920;BME280;63804;53.120;8.764;2023-11-22T04:18:29;103112.22;;;4.78;71.70
54920;BME280;63804;53.120;8.764;2023-11-22T04:20:58;103109.69;;;4.71;71.84
54920;BME280;63804;53.120;8.764;2023-11-22T04:23:28;103100.94;;;4.72;72.41
54920;BME280;63804;53.120;8.764;2023-11-22T04:25:56;103098.38;;;4.66;72.11
54920;BME280;63804;53.120;8.764;2023-11-22T04:28:26;103099.97;;;4.79;72.08
54920;BME280;63804;53.120;8.764;2023-11-22T04:30:54;103107.03;;;4.72;71.32
54920;BME280;63804;53.120;8.764;2023-11-22T04:33:22;103095.19;;;4.34;73.52
54920;BME280;63804;53.120;8.764;2023-11-22T04:35:50;103093.50;;;4.29;74.22
54920;BME280;63804;53.120;8.764;2023-11-22T04:38:18;103085.06;;;3.98;74.96
54920;BME280;63804;53.120;8.764;2023-11-22T04:40:46;103092.16;;;3.83;75.53
54920;BME280;63804;53.120;8.764;2023-11-22T04:43:14;103094.06;;;3.63;75.73
54920;BME280;63804;53.120;8.764;2023-11-22T04:45:41;103107.19;;;3.60;75.99
54920;BME280;63804;53.120;8.764;2023-11-22T04:48:09;103104.56;;;3.58;75.64
54920;BME280;63804;53.120;8.764;2023-11-22T04:50:37;103113.22;;;3.70;75.71
54920;BME280;63804;53.120;8.764;2023-11-22T04:53:05;103122.91;;;3.60;75.45
54920;BME280;63804;53.120;8.764;2023-11-22T04:55:33;103128.13;;;3.61;75.31
54920;BME280;63804;53.120;8.764;2023-11-22T04:58:00;103136.81;;;3.68;75.14
54920;BME280;63804;53.120;8.764;2023-11-22T05:00:28;103141.09;;;3.81;74.76
54920;BME280;63804;53.120;8.764;2023-11-22T05:02:56;103147.28;;;3.70;74.65
54920;BME280;63804;53.120;8.764;2023-11-22T05:05:24;103153.25;;;3.91;74.47
54920;BME280;63804;53.120;8.764;2023-11-22T05:07:52;103156.72;;;3.98;73.65
54920;BME280;63804;53.120;8.764;2023-11-22T05:10:20;103155.06;;;3.83;73.67
54920;BME280;63804;53.120;8.764;2023-11-22T05:12:47;103152.44;;;3.80;74.90
54920;BME280;63804;53.120;8.764;2023-11-22T05:15:15;103156.75;;;3.94;74.22
54920;BME280;63804;53.120;8.764;2023-11-22T05:17:43;103150.56;;;3.99;74.20
54920;BME280;63804;53.120;8.764;2023-11-22T05:20:11;103147.06;;;4.02;74.52
54920;BME280;63804;53.120;8.764;2023-11-22T05:22:39;103138.31;;;4.03;74.21
54920;BME280;63804;53.120;8.764;2023-11-22T05:25:07;103136.44;;;4.20;73.18
54920;BME280;63804;53.120;8.764;2023-11-22T05:27:34;103129.50;;;4.11;73.60
54920;BME280;63804;53.120;8.764;2023-11-22T05:30:02;103132.84;;;4.32;72.17
54920;BME280;63804;53.120;8.764;2023-11-22T05:32:32;103129.16;;;4.48;71.34
54920;BME280;63804;53.120;8.764;2023-11-22T05:34:59;103125.81;;;4.34;71.17
54920;BME280;63804;53.120;8.764;2023-11-22T05:37:28;103127.16;;;3.73;73.02
54920;BME280;63804;53.120;8.764;2023-11-22T05:39:56;103127.25;;;3.64;74.05
54920;BME280;63804;53.120;8.764;2023-11-22T05:42:24;103126.31;;;3.71;73.42
54920;BME280;63804;53.120;8.764;2023-11-22T05:44:52;103134.06;;;3.89;73.05
54920;BME280;63804;53.120;8.764;2023-11-22T05:47:20;103139.97;;;4.11;72.10
54920;BME280;63804;53.120;8.764;2023-11-22T05:49:48;103143.59;;;3.97;72.78
54920;BME280;63804;53.120;8.764;2023-11-22T05:52:15;103136.44;;;4.19;71.35
54920;BME280;63804;53.120;8.764;2023-11-22T05:54:43;103144.72;;;3.63;72.55
54920;BME280;63804;53.120;8.764;2023-11-22T05:57:11;103149.28;;;3.25;74.12
54920;BME280;63804;53.120;8.764;2023-11-22T05:59:39;103149.34;;;3.09;74.94
54920;BME280;63804;53.120;8.764;2023-11-22T06:02:06;103149.34;;;3.08;75.06
54920;BME280;63804;53.120;8.764;2023-11-22T06:04:34;103152.69;;;3.40;74.62
54920;BME280;63804;53.120;8.764;2023-11-22T06:07:04;103147.41;;;3.47;73.72
54920;BME280;63804;53.120;8.764;2023-11-22T06:09:32;103139.34;;;3.82;73.11
54920;BME280;63804;53.120;8.764;2023-11-22T06:12:01;103141.06;;;3.86;72.07
54920;BME280;63804;53.120;8.764;2023-11-22T06:14:29;103143.09;;;3.39;73.24
54920;BME280;63804;53.120;8.764;2023-11-22T06:16:56;103136.28;;;3.02;74.73
54920;BME280;63804;53.120;8.764;2023-11-22T06:19:24;103137.22;;;2.84;75.41
54920;BME280;63804;53.120;8.764;2023-11-22T06:21:52;103152.94;;;2.76;76.08
54920;BME280;63804;53.120;8.764;2023-11-22T06:24:22;103153.75;;;2.95;75.61
54920;BME280;63804;53.120;8.764;2023-11-22T06:26:49;103144.16;;;2.99;75.07
54920;BME280;63804;53.120;8.764;2023-11-22T06:29:17;103141.50;;;3.08;75.06
54920;BME280;63804;53.120;8.764;2023-11-22T06:31:45;103141.50;;;3.06;75.53
54920;BME280;63804;53.120;8.764;2023-11-22T06:34:13;103144.06;;;3.22;74.71
54920;BME280;63804;53.120;8.764;2023-11-22T06:36:41;103142.28;;;3.27;74.72
54920;BME280;63804;53.120;8.764;2023-11-22T06:39:09;103138.78;;;3.29;74.16
54920;BME280;63804;53.120;8.764;2023-11-22T06:41:37;103142.28;;;3.28;74.69
54920;BME280;63804;53.120;8.764;2023-11-22T06:44:05;103138.78;;;3.28;74.66
54920;BME280;63804;53.120;8.764;2023-11-22T06:46:33;103144.00;;;3.34;74.78
54920;BME280;63804;53.120;8.764;2023-11-22T06:49:00;103149.25;;;3.32;74.86
54920;BME280;63804;53.120;8.764;2023-11-22T06:51:29;103156.19;;;3.44;74.88
54920;BME280;63804;53.120;8.764;2023-11-22T06:53:57;103172.72;;;3.52;74.48
54920;BME280;63804;53.120;8.764;2023-11-22T06:56:25;103177.06;;;3.56;74.88
54920;BME280;63804;53.120;8.764;2023-11-22T06:58:53;103175.22;;;3.72;74.45
54920;BME280;63804;53.120;8.764;2023-11-22T07:01:24;103173.47;;;3.73;74.47
54920;BME280;63804;53.120;8.764;2023-11-22T07:03:54;103171.81;;;3.59;74.53
54920;BME280;63804;53.120;8.764;2023-11-22T07:06:22;103163.88;;;3.69;75.28
54920;BME280;63804;53.120;8.764;2023-11-22T07:08:50;103160.28;;;3.86;74.75
54920;BME280;63804;53.120;8.764;2023-11-22T07:11:22;103164.44;;;4.17;73.88
54920;BME280;63804;53.120;8.764;2023-11-22T07:13:51;103160.03;;;4.19;73.54
54920;BME280;63804;53.120;8.764;2023-11-22T07:16:19;103161.03;;;4.05;74.16
54920;BME280;63804;53.120;8.764;2023-11-22T07:18:48;103148.88;;;3.92;74.99
54920;BME280;63804;53.120;8.764;2023-11-22T07:21:16;103154.09;;;3.98;74.61
54920;BME280;63804;53.120;8.764;2023-11-22T07:23:48;103163.41;;;4.36;73.70
54920;BME280;63804;53.120;8.764;2023-11-22T07:26:19;103158.00;;;4.51;73.09
54920;BME280;63804;53.120;8.764;2023-11-22T07:28:47;103162.22;;;4.64;72.17
54920;BME280;63804;53.120;8.764;2023-11-22T07:31:15;103170.13;;;4.63;71.69
54920;BME280;63804;53.120;8.764;2023-11-22T07:33:45;103180.22;;;4.07;73.45
54920;BME280;63804;53.120;8.764;2023-11-22T07:36:14;103176.09;;;3.73;75.20
54920;BME280;63804;53.120;8.764;2023-11-22T07:38:44;103183.81;;;3.94;75.50
54920;BME280;63804;53.120;8.764;2023-11-22T07:41:12;103178.31;;;4.29;74.29
54920;BME280;63804;53.120;8.764;2023-11-22T07:43:40;103189.81;;;4.10;74.68
54920;BME280;63804;53.120;8.764;2023-11-22T07:46:08;103188.25;;;3.86;75.76
54920;BME280;63804;53.120;8.764;2023-11-22T07:48:44;103189.81;;;4.10;75.34
54920;BME280;63804;53.120;8.764;2023-11-22T07:51:15;103187.88;;;4.36;74.55
54920;BME280;63804;53.120;8.764;2023-11-22T07:53:46;103186.78;;;4.60;73.92
54920;BME280;63804;53.120;8.764;2023-11-22T07:56:13;103189.41;;;4.60;73.66
54920;BME280;63804;53.120;8.764;2023-11-22T07:58:44;103189.47;;;4.53;73.50
54920;BME280;63804;53.120;8.764;2023-11-22T08:01:12;103184.44;;;4.28;75.09
54920;BME280;63804;53.120;8.764;2023-11-22T08:03:41;103185.97;;;4.52;74.71
54920;BME280;63804;53.120;8.764;2023-11-22T08:06:16;103187.38;;;4.88;72.81
54920;BME280;63804;53.120;8.764;2023-11-22T08:08:44;103196.91;;;4.97;71.89
54920;BME280;63804;53.120;8.764;2023-11-22T08:11:14;103196.00;;;4.98;72.23
54920;BME280;63804;53.120;8.764;2023-11-22T08:13:48;103201.41;;;4.86;72.09
54920;BME280;63804;53.120;8.764;2023-11-22T08:16:16;103201.59;;;4.66;73.25
54920;BME280;63804;53.120;8.764;2023-11-22T08:18:45;103209.19;;;4.92;72.79
54920;BME280;63804;53.120;8.764;2023-11-22T08:21:13;103218.75;;;5.01;72.43
54920;BME280;63804;53.120;8.764;2023-11-22T08:23:40;103215.28;;;4.96;72.69
54920;BME280;63804;53.120;8.764;2023-11-22T08:26:08;103210.03;;;4.97;72.73
54920;BME280;63804;53.120;8.764;2023-11-22T08:28:36;103206.69;;;4.81;72.66
54920;BME280;63804;53.120;8.764;2023-11-22T08:31:05;103198.13;;;4.66;74.10
54920;BME280;63804;53.120;8.764;2023-11-22T08:33:37;103191.69;;;4.94;73.10
54920;BME280;63804;53.120;8.764;2023-11-22T08:36:07;103191.63;;;4.99;72.58
54920;BME280;63804;53.120;8.764;2023-11-22T08:38:36;103199.78;;;4.74;72.93
54920;BME280;63804;53.120;8.764;2023-11-22T08:41:04;103214.59;;;4.78;73.80
54920;BME280;63804;53.120;8.764;2023-11-22T08:43:36;103204.69;;;5.03;73.07
54920;BME280;63804;53.120;8.764;2023-11-22T08:46:03;103199.28;;;5.19;72.01
54920;BME280;63804;53.120;8.764;2023-11-22T08:48:41;103192.28;;;5.18;72.60
54920;BME280;63804;53.120;8.764;2023-11-22T08:51:10;103197.00;;;4.86;73.32
54920;BME280;63804;53.120;8.764;2023-11-22T08:53:39;103192.75;;;4.75;74.18
54920;BME280;63804;53.120;8.764;2023-11-22T08:56:07;103196.06;;;4.94;74.63
54920;BME280;63804;53.120;8.764;2023-11-22T08:58:39;103207.25;;;5.12;73.52
54920;BME280;63804;53.120;8.764;2023-11-22T09:01:07;103200.94;;;5.27;73.09
54920;BME280;63804;53.120;8.764;2023-11-22T09:03:35;103202.63;;;5.30;72.97
54920;BME280;63804;53.120;8.764;2023-11-22T09:06:03;103198.09;;;5.46;72.51
54920;BME280;63804;53.120;8.764;2023-11-22T09:08:31;103192.94;;;5.38;72.99
54920;BME280;63804;53.120;8.764;2023-11-22T09:10:58;103195.78;;;5.18;74.20
54920;BME280;63804;53.120;8.764;2023-11-22T09:13:26;103189.50;;;5.31;74.53
54920;BME280;63804;53.120;8.764;2023-11-22T09:15:54;103195.31;;;5.58;73.63
54920;BME280;63804;53.120;8.764;2023-11-22T09:18:22;103200.50;;;5.62;73.75
54920;BME280;63804;53.120;8.764;2023-11-22T09:20:50;103219.78;;;5.61;74.05
54920;BME280;63804;53.120;8.764;2023-11-22T09:23:17;103221.31;;;5.78;73.99
54920;BME280;63804;53.120;8.764;2023-11-22T09:25:46;103221.16;;;5.87;73.61
54920;BME280;63804;53.120;8.764;2023-11-22T09:28:14;103221.88;;;6.01;73.32
54920;BME280;63804;53.120;8.764;2023-11-22T09:30:43;103226.25;;;6.02;73.22
54920;BME280;63804;53.120;8.764;2023-11-22T09:33:14;103240.88;;;6.20;73.06
54920;BME280;63804;53.120;8.764;2023-11-22T09:35:46;103232.09;;;6.23;72.80
54920;BME280;63804;53.120;8.764;2023-11-22T09:38:18;103222.38;;;6.25;71.79
54920;BME280;63804;53.120;8.764;2023-11-22T09:40:47;103220.69;;;6.21;71.11
54920;BME280;63804;53.120;8.764;2023-11-22T09:43:18;103223.22;;;6.28;69.69
54920;BME280;63804;53.120;8.764;2023-11-22T09:45:48;103221.19;;;6.44;69.85
54920;BME280;63804;53.120;8.764;2023-11-22T09:48:24;103225.63;;;6.41;69.94
54920;BME280;63804;53.120;8.764;2023-11-22T09:51:03;103220.19;;;6.53;69.53
54920;BME280;63804;53.120;8.764;2023-11-22T09:56:19;103216.53;;;6.60;69.78
54920;BME280;63804;53.120;8.764;2023-11-22T09:58:51;103226.19;;;6.61;68.95
54920;BME280;63804;53.120;8.764;2023-11-22T10:01:23;103222.22;;;6.35;69.16
54920;BME280;63804;53.120;8.764;2023-11-22T10:03:54;103221.41;;;6.33;70.04
54920;BME280;63804;53.120;8.764;2023-11-22T10:06:22;103220.25;;;6.50;68.42
54920;BME280;63804;53.120;8.764;2023-11-22T10:08:50;103210.47;;;6.56;67.93
54920;BME280;63804;53.120;8.764;2023-11-22T10:11:19;103205.09;;;6.63;66.56
54920;BME280;63804;53.120;8.764;2023-11-22T10:13:49;103206.94;;;6.56;67.11
54920;BME280;63804;53.120;8.764;2023-11-22T10:16:18;103188.41;;;6.64;67.34
54920;BME280;63804;53.120;8.764;2023-11-22T10:18:48;103190.16;;;6.63;66.81
54920;BME280;63804;53.120;8.764;2023-11-22T10:21:27;103205.13;;;6.61;65.49
54920;BME280;63804;53.120;8.764;2023-11-22T10:24:02;103210.47;;;6.56;64.89
54920;BME280;63804;53.120;8.764;2023-11-22T10:26:31;103208.63;;;6.62;64.70
54920;BME280;63804;53.120;8.764;2023-11-22T10:29:00;103213.72;;;6.71;64.45
54920;BME280;63804;53.120;8.764;2023-11-22T10:31:28;103194.34;;;6.75;63.94
54920;BME280;63804;53.120;8.764;2023-11-22T10:33:56;103192.69;;;6.68;63.61
54920;BME280;63804;53.120;8.764;2023-11-22T10:36:26;103189.91;;;6.77;63.93
54920;BME280;63804;53.120;8.764;2023-11-22T10:38:54;103184.56;;;6.81;63.43
54920;BME280;63804;53.120;8.764;2023-11-22T10:41:22;103167.66;;;6.95;63.54
54920;BME280;63804;53.120;8.764;2023-11-22T10:43:52;103169.22;;;7.03;63.03
54920;BME280;63804;53.120;8.764;2023-11-22T10:46:27;103181.00;;;6.84;61.96
54920;BME280;63804;53.120;8.764;2023-11-22T10:48:55;103170.59;;;6.78;63.13
54920;BME280;63804;53.120;8.764;2023-11-22T10:51:32;103143.84;;;6.98;62.02
54920;BME280;63804;53.120;8.764;2023-11-22T10:54:01;103143.94;;;6.95;61.51
54920;BME280;63804;53.120;8.764;2023-11-22T10:56:36;103149.06;;;7.01;61.38
54920;BME280;63804;53.120;8.764;2023-11-22T10:59:10;103140.19;;;7.05;61.42
54920;BME280;63804;53.120;8.764;2023-11-22T11:01:45;103128.78;;;7.04;60.80
54920;BME280;63804;53.120;8.764;2023-11-22T11:04:24;103127.00;;;7.06;60.27
54920;BME280;63804;53.120;8.764;2023-11-22T11:06:54;103119.34;;;6.94;60.33
54920;BME280;63804;53.120;8.764;2023-11-22T11:09:23;103112.38;;;6.92;60.09
54920;BME280;63804;53.120;8.764;2023-11-22T11:11:55;103100.34;;;6.78;60.19
54920;BME280;63804;53.120;8.764;2023-11-22T11:14:26;103095.38;;;6.65;59.99
54920;BME280;63804;53.120;8.764;2023-11-22T11:16:55;103092.44;;;6.80;60.08
54920;BME280;63804;53.120;8.764;2023-11-22T11:19:26;103075.63;;;6.87;59.99
54920;BME280;63804;53.120;8.764;2023-11-22T11:21:55;103069.34;;;6.93;59.41
54920;BME280;63804;53.120;8.764;2023-11-22T11:24:25;103056.75;;;7.07;59.29
54920;BME280;63804;53.120;8.764;2023-11-22T11:26:53;103039.03;;;7.14;59.04
54920;BME280;63804;53.120;8.764;2023-11-22T11:29:35;103031.94;;;7.16;59.44
54920;BME280;63804;53.120;8.764;2023-11-22T11:32:04;103023.22;;;7.14;59.17
54920;BME280;63804;53.120;8.764;2023-11-22T11:34:45;103006.34;;;7.22;59.03
54920;BME280;63804;53.120;8.764;2023-11-22T11:37:14;103009.78;;;7.26;59.12
54920;BME280;63804;53.120;8.764;2023-11-22T11:39:42;103007.81;;;7.34;58.91
54920;BME280;63804;53.120;8.764;2023-11-22T11:42:10;102985.03;;;7.31;58.37
54920;BME280;63804;53.120;8.764;2023-11-22T11:45:10;102969.97;;;7.37;57.60
54920;BME280;63804;53.120;8.764;2023-11-22T11:47:38;102967.38;;;7.35;58.17
54920;BME280;63804;53.120;8.764;2023-11-22T11:50:06;102957.75;;;7.34;57.81
54920;BME280;63804;53.120;8.764;2023-11-22T11:52:38;102954.06;;;7.41;57.23
54920;BME280;63804;53.120;8.764;2023-11-22T11:55:06;102936.47;;;7.40;56.97
54920;BME280;63804;53.120;8.764;2023-11-22T11:57:34;102935.81;;;7.32;56.29
54920;BME280;63804;53.120;8.764;2023-11-22T12:00:05;102934.53;;;7.13;55.78
54920;BME280;63804;53.120;8.764;2023-11-22T12:02:34;102923.06;;;7.15;55.63
54920;BME280;63804;53.120;8.764;2023-11-22T12:05:02;102930.28;;;7.07;55.23
54920;BME280;63804;53.120;8.764;2023-11-22T12:07:37;102925.22;;;6.99;55.75
54920;BME280;63804;53.120;8.764;2023-11-22T12:10:05;102918.66;;;7.16;55.45
54920;BME280;63804;53.120;8.764;2023-11-22T12:12:36;102925.81;;;7.11;55.69
54920;BME280;63804;53.120;8.764;2023-11-22T12:15:05;102917.66;;;7.21;55.48
54920;BME280;63804;53.120;8.764;2023-11-22T12:17:34;102911.22;;;7.31;55.03
54920;BME280;63804;53.120;8.764;2023-11-22T12:20:15;102921.75;;;7.33;54.25
54920;BME280;63804;53.120;8.764;2023-11-22T12:22:48;102932.44;;;7.27;54.92
54920;BME280;63804;53.120;8.764;2023-11-22T12:25:16;102931.53;;;7.28;54.28
54920;BME280;63804;53.120;8.764;2023-11-22T12:27:44;102956.47;;;7.15;53.28
54920;BME280;63804;53.120;8.764;2023-11-22T12:30:35;102968.22;;;7.36;51.24
54920;BME280;63804;53.120;8.764;2023-11-22T12:33:09;102973.25;;;7.46;52.08
54920;BME280;63804;53.120;8.764;2023-11-22T12:35:38;102955.72;;;7.44;51.62
54920;BME280;63804;53.120;8.764;2023-11-22T12:38:06;102947.22;;;7.32;51.58
54920;BME280;63804;53.120;8.764;2023-11-22T12:40:34;102945.09;;;7.48;51.82
54920;BME280;63804;53.120;8.764;2023-11-22T12:43:03;102944.38;;;7.40;51.86
54920;BME280;63804;53.120;8.764;2023-11-22T12:45:32;102952.22;;;7.43;50.76
54920;BME280;63804;53.120;8.764;2023-11-22T12:48:22;102958.53;;;7.36;48.74
54920;BME280;63804;53.120;8.764;2023-11-22T12:50:52;102951.97;;;7.18;50.76
54920;BME280;63804;53.120;8.764;2023-11-22T12:53:22;102954.69;;;7.15;50.85
54920;BME280;63804;53.120;8.764;2023-11-22T12:55:51;102960.88;;;7.14;51.07
54920;BME280;63804;53.120;8.764;2023-11-22T12:58:20;102956.88;;;7.33;50.22
54920;BME280;63804;53.120;8.764;2023-11-22T13:00:49;102955.78;;;7.42;49.97
54920;BME280;63804;53.120;8.764;2023-11-22T13:03:17;102958.47;;;7.41;49.41
54920;BME280;63804;53.120;8.764;2023-11-22T13:05:45;102948.13;;;7.31;49.62
54920;BME280;63804;53.120;8.764;2023-11-22T13:08:13;102952.66;;;7.26;49.08
54920;BME280;63804;53.120;8.764;2023-11-22T13:10:45;102948.84;;;7.38;48.97
54920;BME280;63804;53.120;8.764;2023-11-22T13:13:22;102943.63;;;7.37;49.12
54920;BME280;63804;53.120;8.764;2023-11-22T13:15:51;102952.28;;;7.40;49.33